Time;durP1;ratioP1;P1;durP2;ratioP2;P2;SDS_P1;SDS_P2;PMS_P1;PMS_P2;Temp;Humidity;BMP_temperature;BMP_pressure;BME280_temperature;BME280_humidity;BME280_pressure;Samples;Min_cycle;Max_cycle;Signal;HPM_P1;HPM_P2
2023/01/03 00:00:44;;;;;;;12.00;8.37;;;;;;;;;;5076595;28;20416;-75
2023/01/03 00:03:15;;;;;;;13.27;8.50;;;;;;;;;;5093611;28;20823;-76
2023/01/03 00:05:41;;;;;;;8.50;6.57;;;;;;;;;;5081697;28;20917;-75
2023/01/03 00:08:08;;;;;;;7.13;6.50;;;;;;;;;;5082849;28;20526;-76
2023/01/03 00:10:34;;;;;;;10.60;6.97;;;;;;;;;;5091965;28;20495;-76
2023/01/03 00:13:00;;;;;;;24.07;7.33;;;;;;;;;;5080548;28;20448;-75
2023/01/03 00:15:26;;;;;;;6.60;5.90;;;;;;;;;;5073982;28;20406;-76
2023/01/03 00:17:52;;;;;;;7.10;6.50;;;;;;;;;;5087113;28;20963;-75
2023/01/03 00:20:18;;;;;;;6.80;6.20;;;;;;;;;;5084357;28;20412;-75
2023/01/03 00:22:44;;;;;;;9.70;6.43;;;;;;;;;;5089856;28;20444;-76
2023/01/03 00:25:10;;;;;;;12.50;6.70;;;;;;;;;;5098979;28;20460;-76
2023/01/03 00:27:36;;;;;;;9.93;5.47;;;;;;;;;;5087616;28;21004;-77
2023/01/03 00:30:03;;;;;;;7.10;6.37;;;;;;;;;;5096369;28;20458;-76
2023/01/03 00:32:29;;;;;;;6.73;6.23;;;;;;;;;;5083055;28;20794;-76
2023/01/03 00:34:55;;;;;;;8.80;5.43;;;;;;;;;;5096573;28;20771;-77
2023/01/03 00:37:21;;;;;;;8.07;6.47;;;;;;;;;;5093934;28;20427;-76
2023/01/03 00:39:47;;;;;;;7.83;6.63;;;;;;;;;;5085564;28;20444;-76
2023/01/03 00:42:13;;;;;;;7.13;6.50;;;;;;;;;;5099078;28;20468;-76
2023/01/03 00:44:39;;;;;;;6.67;6.07;;;;;;;;;;5099236;28;20436;-76
2023/01/03 00:47:05;;;;;;;7.63;6.93;;;;;;;;;;5098931;28;20842;-75
2023/01/03 00:49:31;;;;;;;9.27;6.10;;;;;;;;;;5071543;28;20467;-75
2023/01/03 00:51:57;;;;;;;6.93;5.67;;;;;;;;;;5083823;28;20425;-75
2023/01/03 00:54:23;;;;;;;7.13;5.67;;;;;;;;;;5074647;28;20440;-76
2023/01/03 00:56:50;;;;;;;6.10;5.57;;;;;;;;;;5098923;28;20522;-74
2023/01/03 00:59:17;;;;;;;6.67;5.30;;;;;;;;;;5087976;28;20477;-74
2023/01/03 01:01:44;;;;;;;8.10;6.37;;;;;;;;;;5093993;28;20461;-75
2023/01/03 01:04:11;;;;;;;12.43;6.33;;;;;;;;;;5089675;28;20887;-75
2023/01/03 01:06:39;;;;;;;7.63;6.70;;;;;;;;;;5089786;28;20445;-74
2023/01/03 01:09:06;;;;;;;10.00;5.57;;;;;;;;;;5090859;28;20518;-73
2023/01/03 01:11:32;;;;;;;9.02;6.60;;;;;;;;;;5082512;28;20650;-75
2023/01/03 01:13:58;;;;;;;7.33;5.90;;;;;;;;;;5099091;28;20193;-73
2023/01/03 01:16:29;;;;;;;6.07;5.57;;;;;;;;;;5084124;28;21129;-74
2023/01/03 01:18:55;;;;;;;6.70;6.17;;;;;;;;;;5076334;28;20440;-75
2023/01/03 01:21:23;;;;;;;6.33;5.77;;;;;;;;;;5089342;28;20489;-74
2023/01/03 01:23:49;;;;;;;7.60;6.22;;;;;;;;;;5081814;28;20440;-75
2023/01/03 01:26:18;;;;;;;11.40;5.50;;;;;;;;;;5076819;28;20186;-74
2023/01/03 01:28:44;;;;;;;4.30;4.00;;;;;;;;;;5092640;28;20934;-75
2023/01/03 01:31:12;;;;;;;9.90;5.30;;;;;;;;;;5095922;28;20428;-76
2023/01/03 01:33:38;;;;;;;5.37;4.97;;;;;;;;;;5064892;28;20955;-75
2023/01/03 01:36:05;;;;;;;6.67;6.07;;;;;;;;;;5089178;28;20439;-75
2023/01/03 01:38:31;;;;;;;10.60;7.13;;;;;;;;;;5091833;28;20675;-75
2023/01/03 01:40:57;;;;;;;8.43;5.27;;;;;;;;;;5081505;28;20432;-76
2023/01/03 01:46:28;;;;;;;5.30;4.97;;;;;;;;;;5075643;28;20824;-76
2023/01/03 01:48:57;;;;;;;5.03;4.73;;;;;;;;;;5076877;28;20988;-75
2023/01/03 01:51:24;;;;;;;5.77;5.13;;;;;;;;;;5074350;28;20501;-76
2023/01/03 01:53:51;;;;;;;10.80;6.30;;;;;;;;;;5075406;28;20432;-75
2023/01/03 01:56:24;;;;;;;4.87;4.47;;;;;;;;;;5089760;28;20443;-75
2023/01/03 01:58:51;;;;;;;5.33;4.47;;;;;;;;;;5082182;28;20455;-74
2023/01/03 02:01:19;;;;;;;10.17;5.50;;;;;;;;;;5081202;28;20459;-75
2023/01/03 02:03:51;;;;;;;7.60;4.83;;;;;;;;;;5096582;28;20450;-75
2023/01/03 02:06:17;;;;;;;7.20;4.43;;;;;;;;;;5095479;28;20439;-75
2023/01/03 02:08:43;;;;;;;5.20;4.90;;;;;;;;;;5070230;28;20475;-76
2023/01/03 02:11:12;;;;;;;6.43;4.60;;;;;;;;;;5088278;28;20838;-76
2023/01/03 02:13:44;;;;;;;4.20;3.90;;;;;;;;;;5082046;28;21011;-75
2023/01/03 02:16:11;;;;;;;5.10;4.80;;;;;;;;;;5081795;28;20574;-75
2023/01/03 02:18:46;;;;;;;6.17;5.60;;;;;;;;;;5065458;28;20439;-76
2023/01/03 02:21:27;;;;;;;4.47;4.17;;;;;;;;;;5078776;28;20426;-74
2023/01/03 02:24:06;;;;;;;6.93;5.57;;;;;;;;;;5074640;28;20444;-74
2023/01/03 02:26:34;;;;;;;6.23;5.80;;;;;;;;;;5076970;28;20412;-74
2023/01/03 02:29:19;;;;;;;5.37;4.90;;;;;;;;;;5078263;28;20479;-75
2023/01/03 02:31:49;;;;;;;7.23;6.43;;;;;;;;;;5074139;28;20849;-75
2023/01/03 02:34:15;;;;;;;5.80;5.50;;;;;;;;;;5093551;28;20458;-75
2023/01/03 02:36:57;;;;;;;5.77;5.30;;;;;;;;;;5101610;28;20435;-76
2023/01/03 02:39:26;;;;;;;5.37;4.90;;;;;;;;;;5063943;28;20485;-76
2023/01/03 02:42:56;;;;;;;7.67;4.67;;;;;;;;;;5097432;28;20542;-75
2023/01/03 02:44:39;;;;;;;5.47;4.40;;;;;;;;;;5079192;28;20508;-75
2023/01/03 02:47:11;;;;;;;6.30;5.40;;;;;;;;;;5074936;28;20447;-75
2023/01/03 02:49:41;;;;;;;11.40;6.53;;;;;;;;;;5073800;28;20974;-75
2023/01/03 02:52:09;;;;;;;9.80;5.73;;;;;;;;;;5090553;28;20484;-74
2023/01/03 02:54:41;;;;;;;8.33;6.40;;;;;;;;;;5096807;28;20435;-74
2023/01/03 02:57:10;;;;;;;7.83;5.37;;;;;;;;;;5099293;28;20430;-74
2023/01/03 02:59:42;;;;;;;8.10;5.97;;;;;;;;;;5096538;28;21052;-75
2023/01/03 03:02:10;;;;;;;8.03;6.23;;;;;;;;;;5094636;28;20433;-75
2023/01/03 03:04:37;;;;;;;7.53;5.50;;;;;;;;;;5092466;28;20447;-75
2023/01/03 03:07:09;;;;;;;6.47;5.87;;;;;;;;;;5094842;28;20426;-75
2023/01/03 03:13:12;;;;;;;6.90;6.30;;;;;;;;;;5076295;28;20467;-74
2023/01/03 03:15:09;;;;;;;5.00;4.60;;;;;;;;;;5073821;28;20795;-75
2023/01/03 03:17:35;;;;;;;5.07;4.67;;;;;;;;;;5082424;28;20463;-75
2023/01/03 03:25:36;;;;;;;4.80;4.50;;;;;;;;;;5087379;28;21167;-75
2023/01/03 03:30:52;;;;;;;6.03;5.10;;;;;;;;;;5074861;28;20435;-74
2023/01/03 03:33:18;;;;;;;5.10;4.73;;;;;;;;;;5087893;28;20496;-76
2023/01/03 03:35:50;;;;;;;4.20;4.00;;;;;;;;;;5071034;28;20401;-75
2023/01/03 03:38:20;;;;;;;5.73;4.43;;;;;;;;;;5093829;28;20442;-75
2023/01/03 03:46:27;;;;;;;5.70;5.30;;;;;;;;;;5078488;28;20834;-76
2023/01/03 03:51:53;;;;;;;6.67;5.57;;;;;;;;;;5078151;28;20566;-75
2023/01/03 03:54:21;;;;;;;9.93;5.87;;;;;;;;;;5083236;28;20440;-75
2023/01/03 03:56:50;;;;;;;7.47;5.60;;;;;;;;;;5091805;28;20419;-75
2023/01/03 03:59:17;;;;;;;8.90;6.33;;;;;;;;;;5085851;28;20523;-75
2023/01/03 04:01:45;;;;;;;8.13;5.70;;;;;;;;;;5087861;28;20424;-75
2023/01/03 04:04:15;;;;;;;8.57;6.27;;;;;;;;;;5084632;28;20519;-75
2023/01/03 04:06:46;;;;;;;7.87;6.97;;;;;;;;;;5075673;28;20460;-75
2023/01/03 04:09:13;;;;;;;7.90;7.00;;;;;;;;;;5091400;28;20974;-76
2023/01/03 04:11:39;;;;;;;9.03;6.87;;;;;;;;;;5082581;28;20872;-73
2023/01/03 04:14:05;;;;;;;7.10;6.47;;;;;;;;;;5083421;28;21068;-74
2023/01/03 04:16:33;;;;;;;9.03;7.20;;;;;;;;;;5076051;28;20462;-75
2023/01/03 04:18:59;;;;;;;8.47;7.77;;;;;;;;;;5096223;28;20527;-74
2023/01/03 04:21:25;;;;;;;8.10;7.10;;;;;;;;;;5081772;28;20906;-75
2023/01/03 04:23:51;;;;;;;8.47;7.30;;;;;;;;;;5065801;28;20498;-76
2023/01/03 04:26:17;;;;;;;8.50;7.10;;;;;;;;;;5071329;28;20554;-76
2023/01/03 04:28:43;;;;;;;9.70;8.20;;;;;;;;;;5080080;28;20555;-74
2023/01/03 04:31:09;;;;;;;9.90;8.20;;;;;;;;;;5093389;28;20451;-75
2023/01/03 04:33:35;;;;;;;10.47;7.50;;;;;;;;;;5078192;28;20969;-75
2023/01/03 04:36:01;;;;;;;13.43;8.67;;;;;;;;;;5085312;28;20459;-76
2023/01/03 04:38:27;;;;;;;8.13;7.50;;;;;;;;;;5092510;28;20440;-75
2023/01/03 04:40:53;;;;;;;9.97;7.87;;;;;;;;;;5104476;28;20434;-75
2023/01/03 04:46:03;;;;;;;15.13;7.93;;;;;;;;;;5091960;28;20411;-74
2023/01/03 04:48:29;;;;;;;8.77;7.90;;;;;;;;;;5091934;28;20466;-74
2023/01/03 04:50:56;;;;;;;11.17;7.80;;;;;;;;;;5104481;28;20608;-75
2023/01/03 04:53:23;;;;;;;7.90;7.20;;;;;;;;;;5088488;28;20485;-74
2023/01/03 04:55:50;;;;;;;9.30;8.15;;;;;;;;;;5093592;28;20499;-74
2023/01/03 04:58:16;;;;;;;10.20;8.10;;;;;;;;;;5090028;28;20193;-74
2023/01/03 05:00:42;;;;;;;12.70;7.97;;;;;;;;;;5075005;28;20967;-75
2023/01/03 05:03:08;;;;;;;12.10;7.73;;;;;;;;;;5094823;28;20522;-76
2023/01/03 05:05:35;;;;;;;9.23;8.30;;;;;;;;;;5089551;28;20415;-76
2023/01/03 05:08:04;;;;;;;8.33;7.50;;;;;;;;;;5087992;28;20480;-74
2023/01/03 05:10:30;;;;;;;9.87;7.53;;;;;;;;;;5080066;28;20459;-75
2023/01/03 05:12:58;;;;;;;9.80;8.37;;;;;;;;;;5099458;28;20539;-75
2023/01/03 05:15:25;;;;;;;8.90;8.00;;;;;;;;;;5089132;28;20739;-75
2023/01/03 05:17:51;;;;;;;13.10;8.50;;;;;;;;;;5079474;28;21187;-74
2023/01/03 05:25:49;;;;;;;12.90;8.07;;;;;;;;;;5077831;28;20180;-75
2023/01/03 05:28:16;;;;;;;9.90;8.90;;;;;;;;;;5094289;28;20440;-75
2023/01/03 05:30:42;;;;;;;15.43;8.37;;;;;;;;;;5075307;28;20185;-76
2023/01/03 05:33:08;;;;;;;11.67;9.10;;;;;;;;;;5097556;28;20419;-77
2023/01/03 05:35:34;;;;;;;14.70;9.47;;;;;;;;;;5089306;28;20420;-76
2023/01/03 05:38:00;;;;;;;14.60;8.43;;;;;;;;;;5100776;28;20900;-75
2023/01/03 05:40:26;;;;;;;17.13;8.63;;;;;;;;;;5089425;28;20534;-75
2023/01/03 05:42:52;;;;;;;11.65;8.18;;;;;;;;;;5096389;28;20485;-74
2023/01/03 05:45:18;;;;;;;16.17;9.90;;;;;;;;;;5080881;28;20830;-75
2023/01/03 05:47:44;;;;;;;13.13;7.80;;;;;;;;;;5088736;28;20523;-75
2023/01/03 05:50:10;;;;;;;16.97;9.20;;;;;;;;;;5095291;28;20285;-74
2023/01/03 05:52:36;;;;;;;20.80;10.37;;;;;;;;;;5072590;28;21002;-74
2023/01/03 05:55:02;;;;;;;15.20;9.77;;;;;;;;;;5084491;28;20436;-75
2023/01/03 05:57:28;;;;;;;12.30;9.00;;;;;;;;;;5096548;28;20273;-74
2023/01/03 05:59:54;;;;;;;14.57;9.50;;;;;;;;;;5099322;28;20438;-75
2023/01/03 06:02:20;;;;;;;13.93;8.40;;;;;;;;;;5070230;28;20524;-76
2023/01/03 06:04:46;;;;;;;11.60;7.97;;;;;;;;;;5063621;28;20456;-75
2023/01/03 06:07:12;;;;;;;10.23;9.20;;;;;;;;;;5085522;28;20455;-75
2023/01/03 06:09:38;;;;;;;14.90;9.30;;;;;;;;;;5085596;28;20943;-76
2023/01/03 06:12:04;;;;;;;11.50;8.10;;;;;;;;;;5105671;28;20441;-76
2023/01/03 06:14:30;;;;;;;10.57;7.10;;;;;;;;;;5077836;28;20823;-75
2023/01/03 06:19:41;;;;;;;9.80;7.90;;;;;;;;;;5079680;28;20797;-75
2023/01/03 06:22:07;;;;;;;11.00;8.57;;;;;;;;;;5079977;28;20429;-74
2023/01/03 06:24:32;;;;;;;14.20;8.70;;;;;;;;;;5086244;28;20424;-75
2023/01/03 06:26:58;;;;;;;12.73;8.87;;;;;;;;;;5073907;28;20969;-74
2023/01/03 06:29:24;;;;;;;12.50;8.73;;;;;;;;;;5089354;28;21083;-75
2023/01/03 06:31:50;;;;;;;18.23;9.30;;;;;;;;;;5079840;28;20892;-75
2023/01/03 06:34:17;;;;;;;14.00;9.70;;;;;;;;;;5084024;28;20316;-75
2023/01/03 06:36:42;;;;;;;18.23;9.57;;;;;;;;;;5094377;28;20419;-74
2023/01/03 06:39:08;;;;;;;12.73;8.23;;;;;;;;;;5094293;28;20420;-74
2023/01/03 06:41:34;;;;;;;13.00;8.67;;;;;;;;;;5074955;28;20740;-76
2023/01/03 06:44:00;;;;;;;13.83;9.80;;;;;;;;;;5091895;28;20424;-75
2023/01/03 06:54:44;;;;;;;13.27;8.87;;;;;;;;;;5080116;28;20501;-75
2023/01/03 06:57:10;;;;;;;13.83;8.77;;;;;;;;;;5076208;28;20408;-75
2023/01/03 06:59:37;;;;;;;12.53;9.03;;;;;;;;;;5087660;28;20454;-75
2023/01/03 07:02:05;;;;;;;12.57;8.70;;;;;;;;;;5092394;28;20404;-75
2023/01/03 07:04:31;;;;;;;11.47;8.17;;;;;;;;;;5083997;28;21018;-74
2023/01/03 07:06:57;;;;;;;9.80;7.70;;;;;;;;;;5072895;28;20454;-76
2023/01/03 07:09:23;;;;;;;11.47;9.40;;;;;;;;;;5082268;28;20520;-75
2023/01/03 07:11:49;;;;;;;15.77;9.53;;;;;;;;;;5071186;28;21218;-75
2023/01/03 07:14:17;;;;;;;14.17;8.80;;;;;;;;;;5073761;28;20432;-74
2023/01/03 07:16:44;;;;;;;8.77;7.20;;;;;;;;;;5071770;28;20761;-75
2023/01/03 07:19:15;;;;;;;11.37;8.80;;;;;;;;;;5094829;28;20428;-76
2023/01/03 07:21:42;;;;;;;13.57;8.55;;;;;;;;;;5082643;28;20529;-74
2023/01/03 07:24:10;;;;;;;11.90;10.70;;;;;;;;;;5079953;28;20187;-76
2023/01/03 07:26:36;;;;;;;12.00;9.00;;;;;;;;;;5077760;28;21045;-75
2023/01/03 07:29:03;;;;;;;9.47;7.97;;;;;;;;;;5094633;28;20582;-74
2023/01/03 07:31:31;;;;;;;16.07;10.10;;;;;;;;;;5077392;28;20513;-75
2023/01/03 07:33:57;;;;;;;9.90;8.10;;;;;;;;;;5077153;28;20479;-74
2023/01/03 07:36:23;;;;;;;8.82;7.82;;;;;;;;;;5079882;28;20445;-75
2023/01/03 07:38:49;;;;;;;9.43;8.30;;;;;;;;;;5079369;28;20197;-76
2023/01/03 07:41:15;;;;;;;17.10;9.63;;;;;;;;;;5103739;27;20544;-74
2023/01/03 07:43:42;;;;;;;10.27;8.30;;;;;;;;;;5077305;28;20843;-75
2023/01/03 07:46:13;;;;;;;12.00;8.73;;;;;;;;;;5083283;28;20432;-75
2023/01/03 07:48:40;;;;;;;11.90;8.75;;;;;;;;;;5086815;28;20467;-76
2023/01/03 07:51:06;;;;;;;11.50;9.10;;;;;;;;;;5081572;28;20718;-76
2023/01/03 07:53:33;;;;;;;11.03;8.83;;;;;;;;;;5077898;28;20622;-75
2023/01/03 07:56:08;;;;;;;9.60;7.73;;;;;;;;;;5084927;28;20985;-76
2023/01/03 07:58:35;;;;;;;8.68;7.90;;;;;;;;;;5083260;28;20426;-75
2023/01/03 08:01:05;;;;;;;13.23;8.10;;;;;;;;;;5087650;28;20196;-75
2023/01/03 08:03:31;;;;;;;12.93;8.43;;;;;;;;;;5074770;28;20440;-74
2023/01/03 08:05:59;;;;;;;8.27;7.57;;;;;;;;;;5093202;28;20514;-76
2023/01/03 08:08:25;;;;;;;7.20;6.43;;;;;;;;;;5078049;28;21039;-76
2023/01/03 08:13:35;;;;;;;9.67;4.97;;;;;;;;;;5071885;28;20443;-75
2023/01/03 08:16:01;;;;;;;5.37;4.97;;;;;;;;;;5077325;28;20424;-74
2023/01/03 08:18:28;;;;;;;4.87;4.57;;;;;;;;;;5088959;28;20431;-75
2023/01/03 08:20:56;;;;;;;5.13;4.73;;;;;;;;;;5086711;28;20883;-75
2023/01/03 08:23:23;;;;;;;6.07;5.10;;;;;;;;;;5076576;28;20818;-75
2023/01/03 08:25:49;;;;;;;5.90;4.37;;;;;;;;;;5097865;28;20475;-75
2023/01/03 08:28:15;;;;;;;4.80;4.50;;;;;;;;;;5087519;28;20440;-75
2023/01/03 08:30:44;;;;;;;6.93;3.80;;;;;;;;;;5082548;28;20469;-77
2023/01/03 08:33:11;;;;;;;8.17;4.30;;;;;;;;;;5080827;28;20443;-75
2023/01/03 08:35:39;;;;;;;3.90;3.70;;;;;;;;;;5083905;28;20408;-74
2023/01/03 08:38:06;;;;;;;5.80;3.60;;;;;;;;;;5084544;28;20451;-75
2023/01/03 08:40:34;;;;;;;4.87;4.43;;;;;;;;;;5084017;28;20408;-76
2023/01/03 08:43:02;;;;;;;2.67;2.60;;;;;;;;;;5087042;28;20448;-76
2023/01/03 08:45:28;;;;;;;4.27;3.30;;;;;;;;;;5076986;28;20441;-76
2023/01/03 08:47:57;;;;;;;3.10;2.93;;;;;;;;;;5080694;28;20447;-75
2023/01/03 08:50:23;;;;;;;4.40;4.00;;;;;;;;;;5074835;28;20463;-76
2023/01/03 08:52:49;;;;;;;2.67;2.57;;;;;;;;;;5085595;28;20471;-75
2023/01/03 08:55:15;;;;;;;3.17;2.97;;;;;;;;;;5087542;28;20914;-75
2023/01/03 08:57:41;;;;;;;4.00;3.70;;;;;;;;;;5088709;28;20430;-76
2023/01/03 09:00:07;;;;;;;6.50;4.00;;;;;;;;;;5087917;28;20416;-76
2023/01/03 09:02:35;;;;;;;4.43;3.90;;;;;;;;;;5085014;28;20435;-75
2023/01/03 09:05:01;;;;;;;4.33;3.93;;;;;;;;;;5079804;28;20496;-75
2023/01/03 09:07:27;;;;;;;6.50;4.13;;;;;;;;;;5081767;28;21090;-75
2023/01/03 09:09:53;;;;;;;2.87;2.77;;;;;;;;;;5083327;28;20463;-75
2023/01/03 09:12:19;;;;;;;2.90;2.90;;;;;;;;;;5078444;28;20446;-74
2023/01/03 09:14:45;;;;;;;2.67;2.47;;;;;;;;;;5085513;28;20407;-76
2023/01/03 09:17:11;;;;;;;4.50;3.87;;;;;;;;;;5083860;28;20420;-76
2023/01/03 09:19:37;;;;;;;3.20;3.00;;;;;;;;;;5076503;28;20958;-77
2023/01/03 09:22:03;;;;;;;2.70;2.60;;;;;;;;;;5076667;28;20430;-76
2023/01/03 09:24:28;;;;;;;4.33;3.53;;;;;;;;;;5088833;28;20447;-75
2023/01/03 09:26:54;;;;;;;2.60;2.50;;;;;;;;;;5092342;28;20546;-75
2023/01/03 09:29:20;;;;;;;3.37;3.27;;;;;;;;;;5081343;28;20475;-76
2023/01/03 09:31:46;;;;;;;3.40;3.20;;;;;;;;;;5095753;28;20523;-75
2023/01/03 09:34:12;;;;;;;3.87;3.67;;;;;;;;;;5084310;28;20404;-75
2023/01/03 09:36:39;;;;;;;3.47;3.30;;;;;;;;;;5085061;28;20458;-75
2023/01/03 09:39:05;;;;;;;2.50;2.40;;;;;;;;;;5082658;28;20407;-74
2023/01/03 09:41:32;;;;;;;2.93;2.77;;;;;;;;;;5090103;28;20448;-75
2023/01/03 09:44:02;;;;;;;3.43;3.33;;;;;;;;;;5081768;28;20400;-76
2023/01/03 09:46:29;;;;;;;3.50;3.40;;;;;;;;;;5098979;28;20447;-75
2023/01/03 09:48:55;;;;;;;2.90;2.70;;;;;;;;;;5077479;28;20551;-76
2023/01/03 10:05:47;;;;;;;3.80;3.50;;;;;;;;;;5081894;28;20847;-75
2023/01/03 10:08:13;;;;;;;3.47;3.17;;;;;;;;;;5079401;28;20452;-76
2023/01/03 10:10:42;;;;;;;3.53;3.23;;;;;;;;;;5073898;28;20488;-74
2023/01/03 10:13:24;;;;;;;3.97;3.10;;;;;;;;;;5082192;28;20440;-74
2023/01/03 10:15:56;;;;;;;2.90;2.80;;;;;;;;;;5092079;28;20446;-74
2023/01/03 10:18:34;;;;;;;2.90;2.90;;;;;;;;;;5081848;28;20462;-75
2023/01/03 10:21:07;;;;;;;2.93;2.70;;;;;;;;;;5082867;28;20428;-75
2023/01/03 10:23:34;;;;;;;3.20;3.10;;;;;;;;;;5087701;28;20554;-75
2023/01/03 10:26:00;;;;;;;3.93;2.50;;;;;;;;;;5085259;28;20489;-75
2023/01/03 10:28:27;;;;;;;2.73;2.53;;;;;;;;;;5086265;28;20439;-75
2023/01/03 10:31:12;;;;;;;3.60;3.30;;;;;;;;;;5079549;28;20432;-73
2023/01/03 10:33:39;;;;;;;2.50;2.40;;;;;;;;;;5089287;28;20957;-75
2023/01/03 10:36:06;;;;;;;3.00;2.93;;;;;;;;;;5083989;28;20497;-76
2023/01/03 10:38:33;;;;;;;3.27;3.17;;;;;;;;;;5080761;28;20513;-75
2023/01/03 10:41:00;;;;;;;3.07;2.97;;;;;;;;;;5080062;28;20434;-76
2023/01/03 10:43:26;;;;;;;3.27;3.17;;;;;;;;;;5081880;28;20442;-75
2023/01/03 10:45:53;;;;;;;3.03;2.90;;;;;;;;;;5080067;28;20440;-76
2023/01/03 10:48:19;;;;;;;3.00;2.80;;;;;;;;;;5074673;28;20811;-74
2023/01/03 10:50:45;;;;;;;2.43;2.20;;;;;;;;;;5089517;28;20462;-76
2023/01/03 10:53:13;;;;;;;3.03;2.90;;;;;;;;;;5083560;28;20427;-74
2023/01/03 10:56:05;;;;;;;2.67;2.67;;;;;;;;;;5085239;28;20481;-75
2023/01/03 10:58:31;;;;;;;2.90;2.70;;;;;;;;;;5071839;28;20435;-75
2023/01/03 11:01:17;;;;;;;2.57;2.47;;;;;;;;;;5101144;28;20424;-74
2023/01/03 11:03:43;;;;;;;2.93;2.93;;;;;;;;;;5075418;28;20423;-75
2023/01/03 11:06:13;;;;;;;2.63;2.63;;;;;;;;;;5081612;28;20431;-75
2023/01/03 11:08:44;;;;;;;3.60;3.27;;;;;;;;;;5071970;28;20448;-77
2023/01/03 11:11:29;;;;;;;3.07;3.00;;;;;;;;;;5075629;28;21448;-75
2023/01/03 11:14:18;;;;;;;2.70;2.60;;;;;;;;;;5091166;28;20765;-75
2023/01/03 11:16:44;;;;;;;2.87;2.87;;;;;;;;;;5079073;28;20906;-75
2023/01/03 11:19:16;;;;;;;3.40;3.10;;;;;;;;;;5093101;28;20440;-76
2023/01/03 11:21:45;;;;;;;3.13;3.03;;;;;;;;;;5074818;28;20531;-75
2023/01/03 11:24:26;;;;;;;2.90;2.90;;;;;;;;;;5091285;28;20440;-77
2023/01/03 11:27:04;;;;;;;3.03;2.67;;;;;;;;;;5087179;28;20431;-75
2023/01/03 11:29:34;;;;;;;3.30;3.00;;;;;;;;;;5087024;28;20491;-76
2023/01/03 11:32:00;;;;;;;3.83;3.37;;;;;;;;;;5088946;28;20431;-76
2023/01/03 11:34:44;;;;;;;4.30;3.10;;;;;;;;;;5092957;28;20440;-75
2023/01/03 11:37:36;;;;;;;3.30;3.30;;;;;;;;;;5085976;28;20945;-74
2023/01/03 11:40:08;;;;;;;3.13;2.90;;;;;;;;;;5058743;28;21035;-74
2023/01/03 11:42:44;;;;;;;3.10;3.00;;;;;;;;;;5077527;28;20811;-74
2023/01/03 11:45:33;;;;;;;3.13;2.80;;;;;;;;;;5086147;28;20467;-75
2023/01/03 11:48:02;;;;;;;2.50;2.40;;;;;;;;;;5081706;28;20511;-76
2023/01/03 11:50:47;;;;;;;2.80;2.80;;;;;;;;;;5086186;28;20485;-75
2023/01/03 11:53:22;;;;;;;3.47;3.27;;;;;;;;;;5088549;28;20427;-76
2023/01/03 11:55:51;;;;;;;3.00;2.80;;;;;;;;;;5084389;28;20396;-75
2023/01/03 11:58:17;;;;;;;4.83;3.80;;;;;;;;;;5082882;28;21000;-75
2023/01/03 12:00:49;;;;;;;3.30;3.20;;;;;;;;;;5083320;28;20404;-74
2023/01/03 12:03:15;;;;;;;3.53;3.30;;;;;;;;;;5079767;28;20446;-75
2023/01/03 12:05:41;;;;;;;3.30;3.10;;;;;;;;;;5086581;28;20419;-76
2023/01/03 12:08:16;;;;;;;3.47;3.27;;;;;;;;;;5085695;28;20496;-75
2023/01/03 12:10:42;;;;;;;3.50;3.30;;;;;;;;;;5086408;28;20486;-76
2023/01/03 12:13:14;;;;;;;3.57;3.43;;;;;;;;;;5079629;28;20936;-80
2023/01/03 12:15:40;;;;;;;2.90;2.80;;;;;;;;;;5090813;28;20447;-76
2023/01/03 12:18:13;;;;;;;3.57;3.20;;;;;;;;;;5091670;28;20428;-75
2023/01/03 12:20:43;;;;;;;3.33;2.77;;;;;;;;;;5086030;28;20432;-76
2023/01/03 12:23:11;;;;;;;3.00;2.80;;;;;;;;;;5083931;28;20444;-76
2023/01/03 12:25:39;;;;;;;2.80;2.70;;;;;;;;;;5091411;28;20799;-76
2023/01/03 12:28:18;;;;;;;3.00;2.83;;;;;;;;;;5079983;28;20515;-76
2023/01/03 12:30:47;;;;;;;3.17;2.90;;;;;;;;;;5082949;28;20466;-76
2023/01/03 12:33:32;;;;;;;2.50;1.93;;;;;;;;;;5087284;28;20513;-76
2023/01/03 12:36:00;;;;;;;3.50;1.50;;;;;;;;;;5091269;28;20476;-75
2023/01/03 12:38:40;;;;;;;1.97;1.87;;;;;;;;;;5087048;28;20440;-75
2023/01/03 12:41:13;;;;;;;1.57;1.50;;;;;;;;;;5080873;28;20535;-76
2023/01/03 12:43:46;;;;;;;1.53;1.53;;;;;;;;;;5078317;28;20426;-76
2023/01/03 12:46:17;;;;;;;1.80;1.30;;;;;;;;;;5082592;28;20923;-75
2023/01/03 12:48:53;;;;;;;8.13;1.33;;;;;;;;;;5087635;28;20506;-76
2023/01/03 12:51:20;;;;;;;1.10;1.10;;;;;;;;;;5084801;28;20747;-75
2023/01/03 12:53:46;;;;;;;1.60;1.30;;;;;;;;;;5083425;28;20561;-74
2023/01/03 12:56:31;;;;;;;3.80;0.93;;;;;;;;;;5083797;28;20890;-76
2023/01/03 12:59:00;;;;;;;2.00;1.60;;;;;;;;;;5088568;28;20452;-76
2023/01/03 13:01:29;;;;;;;1.43;1.10;;;;;;;;;;5081424;28;20427;-75
2023/01/03 13:03:56;;;;;;;0.70;0.70;;;;;;;;;;5113185;27;20442;-76
2023/01/03 13:06:30;;;;;;;0.97;0.97;;;;;;;;;;5087371;28;20411;-76
2023/01/03 13:08:56;;;;;;;0.97;0.97;;;;;;;;;;5089575;28;20463;-75
2023/01/03 13:11:22;;;;;;;0.47;0.47;;;;;;;;;;5097316;28;20531;-76
2023/01/03 13:13:52;;;;;;;1.43;0.80;;;;;;;;;;5103354;27;20874;-77
2023/01/03 13:16:30;;;;;;;1.20;1.20;;;;;;;;;;5086652;28;20458;-75
2023/01/03 13:19:16;;;;;;;1.13;1.13;;;;;;;;;;5083139;28;20443;-76
2023/01/03 13:21:54;;;;;;;0.80;0.80;;;;;;;;;;5086695;28;20932;-75
2023/01/03 13:24:38;;;;;;;0.83;0.83;;;;;;;;;;5095223;28;20938;-77
2023/01/03 13:27:19;;;;;;;2.47;0.70;;;;;;;;;;5085897;28;20434;-75
2023/01/03 13:29:45;;;;;;;1.43;0.80;;;;;;;;;;5088913;28;20806;-76
2023/01/03 13:32:24;;;;;;;1.17;1.10;;;;;;;;;;5101254;28;20529;-76
2023/01/03 13:34:56;;;;;;;0.90;0.90;;;;;;;;;;5073841;28;20451;-74
2023/01/03 13:37:25;;;;;;;1.90;1.00;;;;;;;;;;5094134;28;20505;-75
2023/01/03 13:39:51;;;;;;;0.80;0.80;;;;;;;;;;5093296;28;20427;-73
2023/01/03 13:42:22;;;;;;;1.27;1.20;;;;;;;;;;5091852;28;20510;-74
2023/01/03 13:44:49;;;;;;;0.90;0.90;;;;;;;;;;5097622;28;20439;-75
2023/01/03 13:47:22;;;;;;;1.13;1.13;;;;;;;;;;5091962;28;20393;-75
2023/01/03 13:49:51;;;;;;;1.30;0.80;;;;;;;;;;5096508;28;20498;-74
2023/01/03 13:52:35;;;;;;;0.80;0.80;;;;;;;;;;5087418;28;20430;-74
2023/01/03 13:55:04;;;;;;;0.60;0.60;;;;;;;;;;5089834;28;20426;-78
2023/01/03 13:57:37;;;;;;;1.10;1.00;;;;;;;;;;5086826;28;20919;-74
2023/01/03 14:00:13;;;;;;;0.90;0.90;;;;;;;;;;5086535;28;20428;-74
2023/01/03 14:02:45;;;;;;;1.03;1.03;;;;;;;;;;5086319;28;20744;-73
2023/01/03 14:05:19;;;;;;;0.80;0.80;;;;;;;;;;5084941;28;20444;-76
2023/01/03 14:07:45;;;;;;;1.10;1.10;;;;;;;;;;5091991;28;20430;-76
2023/01/03 14:10:30;;;;;;;7.43;1.10;;;;;;;;;;5080894;28;20471;-80
2023/01/03 14:12:59;;;;;;;1.17;1.07;;;;;;;;;;5087178;28;20451;-76
2023/01/03 14:15:25;;;;;;;1.33;1.23;;;;;;;;;;5080855;28;20511;-74
2023/01/03 14:17:54;;;;;;;0.80;0.77;;;;;;;;;;5096833;28;20431;-74
2023/01/03 14:20:25;;;;;;;1.83;1.23;;;;;;;;;;5087459;28;20859;-75
2023/01/03 14:22:52;;;;;;;1.20;1.10;;;;;;;;;;5083393;28;21083;-74
2023/01/03 14:25:34;;;;;;;5.03;1.10;;;;;;;;;;5086287;28;20672;-75
2023/01/03 14:28:05;;;;;;;1.33;1.00;;;;;;;;;;5084586;28;20424;-76
2023/01/03 14:30:33;;;;;;;0.80;0.80;;;;;;;;;;5082631;28;20519;-75
2023/01/03 14:32:59;;;;;;;1.50;0.90;;;;;;;;;;5077029;28;20416;-75
2023/01/03 14:35:31;;;;;;;4.93;1.50;;;;;;;;;;5088513;28;20444;-74
2023/01/03 14:37:57;;;;;;;0.87;0.80;;;;;;;;;;5078772;28;20668;-77
2023/01/03 14:40:23;;;;;;;0.70;0.70;;;;;;;;;;5081458;28;20432;-76
2023/01/03 14:42:49;;;;;;;0.73;0.73;;;;;;;;;;5085351;28;20415;-75
2023/01/03 14:45:16;;;;;;;1.53;1.00;;;;;;;;;;5086392;28;20986;-76
2023/01/03 14:47:42;;;;;;;1.27;0.50;;;;;;;;;;5094850;27;20858;-76
2023/01/03 14:50:15;;;;;;;1.20;1.00;;;;;;;;;;5083547;28;20510;-77
2023/01/03 14:52:42;;;;;;;0.80;0.80;;;;;;;;;;5081910;28;20446;-77
2023/01/03 14:55:18;;;;;;;0.50;0.50;;;;;;;;;;5084819;28;20478;-76
2023/01/03 14:57:45;;;;;;;0.60;0.60;;;;;;;;;;5091932;28;20496;-76
2023/01/03 15:00:15;;;;;;;2.47;0.80;;;;;;;;;;5080549;28;20434;-77
2023/01/03 15:02:42;;;;;;;1.20;1.20;;;;;;;;;;5084896;28;20503;-77
2023/01/03 15:05:26;;;;;;;1.50;0.80;;;;;;;;;;5080900;28;20428;-76
2023/01/03 15:07:52;;;;;;;4.23;1.10;;;;;;;;;;5083393;28;20423;-76
2023/01/03 15:10:25;;;;;;;0.87;0.87;;;;;;;;;;5081669;28;20600;-76
2023/01/03 15:12:54;;;;;;;0.87;0.80;;;;;;;;;;5089368;28;20656;-78
2023/01/03 15:15:26;;;;;;;1.70;1.60;;;;;;;;;;5087245;28;20933;-77
2023/01/03 15:17:54;;;;;;;1.80;1.80;;;;;;;;;;5084851;28;20408;-78
2023/01/03 15:20:33;;;;;;;0.90;0.90;;;;;;;;;;5088216;28;20428;-77
2023/01/03 15:23:00;;;;;;;0.87;0.87;;;;;;;;;;5083426;28;20850;-77
2023/01/03 15:25:37;;;;;;;0.73;0.73;;;;;;;;;;5088116;28;20457;-77
2023/01/03 15:28:23;;;;;;;5.93;4.83;;;;;;;;;;5078515;28;20404;-75
2023/01/03 15:30:49;;;;;;;0.70;0.70;;;;;;;;;;5083307;28;20770;-78
2023/01/03 15:33:41;;;;;;;0.73;0.73;;;;;;;;;;5083608;28;20423;-78
2023/01/03 15:36:11;;;;;;;1.30;1.20;;;;;;;;;;5071460;28;20474;-76
2023/01/03 15:38:42;;;;;;;0.90;0.90;;;;;;;;;;5088804;28;20424;-80
2023/01/03 15:41:14;;;;;;;1.00;1.00;;;;;;;;;;5089260;28;20454;-77
2023/01/03 15:43:40;;;;;;;0.90;0.90;;;;;;;;;;5078805;28;20433;-76
2023/01/03 15:46:18;;;;;;;0.83;0.83;;;;;;;;;;5073543;28;20808;-76
2023/01/03 15:48:52;;;;;;;2.47;0.97;;;;;;;;;;5087526;28;20427;-75
2023/01/03 15:51:18;;;;;;;0.70;0.70;;;;;;;;;;5100574;27;20490;-76